ADDS TAF Board (Experimental) INFO

IDs: Format: Expanded Condensed

Updated at: 0522 UTC 21 Oct 2014

KDFW - Dallas-Ft Worth Intl, TX, US

Issued at 0520 UTC 21 Oct 2014
Time0453Z21/06Z21/07Z21/08Z21/09Z21/10Z21/11Z21/12Z21/13Z21/14Z21/15Z21/16Z21/17Z21/18Z
TypeOBSPRVLPRVLPRVLPRVLPRVLPRVLPRVLPRVLPRVLPRVLPRVLPRVLPRVL
VIS10>6>6>6>6>6>6>6>6>6>6>6>6>6
CIG----------------------------
CoverFEWSCTSCTSCTSCTSCTSCTSCTSCTSCTSCTSCTSCTSCT
FltCat--VFRVFRVFRVFRVFRVFRVFRVFRVFRVFRVFRVFRVFR
WX----------------------------
WDir150140140140140140140140140140140140140140
WSpd34444444444444
WGst----------------------------
R13/31
XWnd-1-0-0-0-0-0-0-0-0-0-0-0-0-0
HWnd34444444444444
R17/35
XWnd13333333333333
HWnd33333333333333
R18/36
XWnd13333333333333
HWnd33333333333333
Raw TAF
KDFW 210520Z 2106/2212 14004KT P6SM SCT250

Raw METAR
KDFW 210453Z 15003KT 10SM FEW300 19/15 A3004 RMK AO2 SLP167 T01940150

TAF Board Legend

Hazard VFR MVFR IFR LIFR
Visibility (sm) >5 3≤X≤5 1≤X<3 <1
Ceiling (100 ft) >30 10≤X≤30 5≤X<10 <5
Wind Speed (kt) <10 10≤X<20 20≤X<30 ≥30
Wind Gust (kt) <15 15≤X<25 25≤X<35 ≥35
Weather No Wx Reported VCTS,-TS,-FZRA TS,FZRA +TS,+FZRA


Page loaded:  05:22 UTC  |   10:22 PM Pacific  |   11:22 PM Mountain  |   12:22 AM Central  |   01:22 AM Eastern

 

ADVISORIES

FORECASTS

FORECASTS

OBSERVATIONS

USER TOOLS

ABOUT US